createdAt,value
2022-12-03T00:01:57.919Z,88.81
2022-12-03T00:04:28.273Z,88.29
2022-12-03T00:07:01.225Z,88.44
2022-12-03T00:09:31.528Z,88.25
2022-12-03T00:12:02.209Z,87.82
2022-12-03T00:14:32.559Z,87.93
2022-12-03T00:17:02.868Z,88.15
2022-12-03T00:19:33.173Z,87.95
2022-12-03T00:22:06.119Z,88.01
2022-12-03T00:24:36.475Z,88.12
2022-12-03T00:27:06.927Z,87.88
2022-12-03T00:29:37.191Z,87.71
2022-12-03T00:32:07.942Z,87.85
2022-12-03T00:34:38.326Z,87.63
2022-12-03T00:37:11.963Z,87.41
2022-12-03T00:39:42.312Z,87.58
2022-12-03T00:42:12.643Z,87.94
2022-12-03T00:44:43.078Z,87.91
2022-12-03T00:47:13.720Z,87.80
2022-12-03T00:49:44.184Z,87.95
2022-12-03T00:52:17.281Z,87.52
2022-12-03T00:54:47.889Z,87.61
2022-12-03T00:57:18.243Z,87.65
2022-12-03T00:59:48.578Z,87.75
2022-12-03T01:02:18.886Z,87.24
2022-12-03T01:04:49.363Z,87.64
2022-12-03T01:07:22.388Z,87.49
2022-12-03T01:09:52.700Z,87.10
2022-12-03T01:12:23.195Z,87.28
2022-12-03T01:14:53.781Z,87.36
2022-12-03T01:17:24.701Z,87.49
2022-12-03T01:19:55.093Z,87.65
2022-12-03T01:22:28.202Z,87.42
2022-12-03T01:24:58.510Z,87.50
2022-12-03T01:27:28.873Z,87.09
2022-12-03T01:29:59.379Z,86.78
2022-12-03T01:32:27.271Z,86.64
2022-12-03T01:35:00.344Z,86.18
2022-12-03T01:37:35.073Z,86.50
2022-12-03T01:40:08.359Z,86.98
2022-12-03T01:42:43.052Z,87.25
2022-12-03T01:45:23.359Z,86.97
2022-12-03T01:47:54.154Z,87.02
2022-12-03T01:50:31.630Z,86.99
2022-12-03T01:53:06.184Z,87.06
2022-12-03T01:55:36.580Z,87.09
2022-12-03T01:58:07.454Z,87.13
2022-12-03T02:00:37.893Z,86.85
2022-12-03T02:03:19.804Z,86.70
2022-12-03T02:05:50.260Z,86.53
2022-12-03T02:08:35.043Z,86.51
2022-12-03T02:11:10.867Z,86.56
2022-12-03T02:13:41.598Z,86.38
2022-12-03T02:16:12.362Z,86.07
2022-12-03T02:18:45.697Z,86.27
2022-12-03T02:21:23.275Z,86.40
2022-12-03T02:24:07.852Z,86.46
2022-12-03T02:26:41.368Z,85.96
2022-12-03T02:29:11.630Z,85.93
2022-12-03T02:31:41.959Z,86.25
2022-12-03T02:34:14.188Z,86.43
2022-12-03T02:36:44.481Z,86.33
2022-12-03T02:39:14.779Z,86.45
2022-12-03T02:42:00.099Z,86.23
2022-12-03T02:44:30.339Z,86.38
2022-12-03T02:47:00.687Z,86.59
2022-12-03T02:49:31.106Z,86.38
2022-12-03T02:52:01.647Z,86.18
2022-12-03T02:54:32.068Z,86.29
2022-12-03T02:57:05.234Z,86.72
2022-12-03T02:59:35.629Z,87.09
2022-12-03T03:02:06.377Z,87.06
2022-12-03T03:04:37.755Z,87.07
2022-12-03T03:07:08.696Z,87.11
2022-12-03T03:09:39.269Z,87.21
2022-12-03T03:12:13.671Z,87.19
2022-12-03T03:14:44.106Z,87.05
2022-12-03T03:17:14.577Z,87.11
2022-12-03T03:19:45.709Z,86.88
2022-12-03T03:22:16.190Z,86.95
2022-12-03T03:24:46.676Z,87.44
2022-12-03T03:27:19.610Z,87.62
2022-12-03T03:29:49.935Z,87.50
2022-12-03T03:32:20.321Z,87.92
2022-12-03T03:34:51.433Z,87.63
2022-12-03T03:37:22.095Z,87.63
2022-12-03T03:39:52.658Z,87.94
2022-12-03T03:42:26.160Z,88.15
2022-12-03T03:44:56.545Z,88.28
2022-12-03T03:47:26.882Z,88.45
2022-12-03T03:49:57.727Z,88.06
2022-12-03T03:52:28.373Z,88.29
2022-12-03T03:54:58.798Z,88.24
2022-12-03T03:57:31.821Z,88.00
2022-12-03T04:00:02.620Z,88.27
2022-12-03T04:02:37.307Z,87.93
2022-12-03T04:05:09.415Z,87.83
2022-12-03T04:07:39.822Z,87.92
2022-12-03T04:10:40.529Z,88.14
2022-12-03T04:13:10.824Z,88.26
2022-12-03T04:15:41.126Z,88.51
2022-12-03T04:18:23.744Z,88.57
2022-12-03T04:21:14.049Z,88.37
2022-12-03T04:23:41.686Z,88.66
2022-12-03T04:26:24.309Z,88.55
2022-12-03T04:28:57.532Z,88.62
2022-12-03T04:31:40.187Z,88.34
2022-12-03T04:34:39.039Z,89.04
2022-12-03T04:37:10.221Z,89.13
2022-12-03T04:39:41.069Z,89.31
2022-12-03T04:42:11.671Z,89.34
2022-12-03T04:44:44.717Z,89.17
2022-12-03T04:47:17.520Z,89.01
2022-12-03T04:49:50.866Z,89.13
2022-12-03T04:52:23.134Z,89.36
2022-12-03T04:54:53.607Z,88.93
2022-12-03T04:57:24.211Z,88.98
2022-12-03T04:59:57.116Z,88.99
2022-12-03T05:02:27.503Z,89.04
2022-12-03T05:04:57.740Z,89.00
2022-12-03T05:07:28.145Z,88.93
2022-12-03T05:09:58.441Z,88.85
2022-12-03T05:12:28.711Z,89.26
2022-12-03T05:15:01.695Z,89.43
2022-12-03T05:17:32.026Z,89.17
2022-12-03T05:20:14.656Z,88.94
2022-12-03T05:22:45.050Z,89.14
2022-12-03T05:25:15.340Z,89.16
2022-12-03T05:27:45.575Z,89.31
2022-12-03T05:30:19.222Z,88.90
2022-12-03T05:32:50.080Z,88.95
2022-12-03T05:35:20.783Z,88.96
2022-12-03T05:37:51.167Z,88.66
2022-12-03T05:40:21.941Z,88.46
2022-12-03T05:42:56.901Z,88.65
2022-12-03T05:45:32.434Z,89.04
2022-12-03T05:48:04.063Z,88.83
2022-12-03T05:50:36.936Z,89.12
2022-12-03T05:53:21.289Z,89.21
2022-12-03T05:55:51.536Z,89.22
2022-12-03T05:58:21.767Z,88.39
2022-12-03T06:00:54.629Z,88.67
2022-12-03T06:03:25.136Z,88.73
2022-12-03T06:05:55.658Z,88.61
2022-12-03T06:08:25.989Z,89.16
2022-12-03T06:10:56.273Z,89.07
2022-12-03T06:13:26.548Z,89.06
2022-12-03T06:15:59.465Z,88.82
2022-12-03T06:18:29.770Z,88.87
2022-12-03T06:21:00.040Z,88.98
2022-12-03T06:23:30.308Z,89.12
2022-12-03T06:26:00.683Z,88.75
2022-12-03T06:28:30.992Z,88.87
2022-12-03T06:31:03.979Z,89.16
2022-12-03T06:33:34.411Z,89.17
2022-12-03T06:36:04.761Z,89.12
2022-12-03T06:38:35.028Z,88.89
2022-12-03T06:41:05.273Z,88.80
2022-12-03T06:43:35.603Z,88.78
2022-12-03T06:46:08.939Z,88.93
2022-12-03T06:48:39.270Z,89.30
2022-12-03T06:51:09.890Z,89.36
2022-12-03T06:53:40.230Z,89.01
2022-12-03T06:56:11.160Z,88.83
2022-12-03T06:58:41.521Z,88.40
2022-12-03T07:01:14.548Z,88.30
2022-12-03T07:03:44.861Z,88.06
2022-12-03T07:06:15.545Z,87.54
2022-12-03T07:08:46.075Z,87.62
2022-12-03T07:11:28.608Z,87.61
2022-12-03T07:14:04.629Z,88.98
2022-12-03T07:16:39.516Z,88.93
2022-12-03T07:19:10.486Z,88.30
2022-12-03T07:21:41.064Z,87.61
2022-12-03T07:24:11.740Z,87.22
2022-12-03T07:26:42.235Z,86.82
2022-12-03T07:29:13.206Z,86.89
2022-12-03T07:31:46.250Z,86.91
2022-12-03T07:34:16.673Z,86.66
2022-12-03T07:36:47.047Z,86.72
2022-12-03T07:39:17.989Z,86.59
2022-12-03T07:41:48.321Z,86.22
2022-12-03T07:44:18.643Z,86.04
2022-12-03T07:46:51.674Z,85.39
2022-12-03T07:49:22.033Z,85.05
2022-12-03T07:51:54.405Z,84.93
2022-12-03T07:54:25.260Z,84.71
2022-12-03T07:57:01.222Z,84.36
2022-12-03T07:59:32.512Z,84.21
2022-12-03T08:02:05.660Z,83.47
2022-12-03T08:04:36.054Z,83.57
2022-12-03T08:07:06.416Z,83.05
2022-12-03T08:09:36.738Z,83.31
2022-12-03T08:12:19.457Z,83.11
2022-12-03T08:14:49.718Z,83.01
2022-12-03T08:17:22.663Z,82.74
2022-12-03T08:19:53.215Z,82.24
2022-12-03T08:22:23.539Z,82.24
2022-12-03T08:24:53.992Z,82.28
2022-12-03T08:27:24.510Z,81.79
2022-12-03T08:30:04.663Z,81.40
2022-12-03T08:32:37.600Z,81.67
2022-12-03T08:35:15.642Z,81.74
2022-12-03T08:37:45.971Z,81.55
2022-12-03T08:40:26.169Z,81.36
2022-12-03T08:42:56.580Z,81.98
2022-12-03T08:45:42.971Z,81.81
2022-12-03T08:48:37.036Z,81.63
2022-12-03T08:51:22.429Z,82.18
2022-12-03T08:54:01.051Z,82.48
2022-12-03T08:56:35.051Z,82.97
2022-12-03T08:59:25.827Z,83.06
2022-12-03T09:01:56.851Z,82.81
2022-12-03T09:04:39.612Z,82.79
2022-12-03T09:07:09.998Z,82.90
2022-12-03T09:09:40.507Z,82.80
2022-12-03T09:12:11.068Z,82.67
2022-12-03T09:14:41.376Z,82.45
2022-12-03T09:17:11.756Z,82.28
2022-12-03T09:19:46.398Z,82.71
2022-12-03T09:22:17.473Z,82.29
2022-12-03T09:24:47.885Z,82.18
2022-12-03T09:27:18.164Z,82.81
2022-12-03T09:29:48.475Z,83.32
2022-12-03T09:32:19.178Z,83.48
2022-12-03T09:34:52.548Z,83.36
2022-12-03T09:37:23.248Z,83.79
2022-12-03T09:39:53.621Z,84.29
2022-12-03T09:42:23.999Z,84.10
2022-12-03T09:44:55.146Z,83.94
2022-12-03T09:47:26.582Z,84.56
2022-12-03T09:50:00.133Z,84.67
2022-12-03T09:52:34.556Z,84.62
2022-12-03T09:55:15.040Z,84.58
2022-12-03T09:57:45.438Z,84.36
2022-12-03T10:00:20.771Z,84.81
2022-12-03T10:02:52.966Z,84.63
2022-12-03T10:05:26.291Z,84.79
2022-12-03T10:07:56.651Z,84.93
2022-12-03T10:10:28.112Z,85.22
2022-12-03T10:12:58.626Z,85.06
2022-12-03T10:15:29.281Z,85.11
2022-12-03T10:18:01.508Z,84.94
2022-12-03T10:20:34.433Z,84.74
2022-12-03T10:23:04.756Z,84.54
2022-12-03T10:25:35.034Z,84.46
2022-12-03T10:28:06.851Z,84.38
2022-12-03T10:30:37.211Z,83.92
2022-12-03T10:33:19.004Z,83.56
2022-12-03T10:35:52.193Z,83.03
2022-12-03T10:38:25.277Z,82.14
2022-12-03T10:40:55.549Z,81.79
2022-12-03T10:43:27.665Z,81.57
2022-12-03T10:46:18.675Z,81.88
2022-12-03T10:48:49.277Z,82.51
2022-12-03T10:51:24.164Z,82.00
2022-12-03T10:53:54.586Z,82.13
2022-12-03T10:56:28.701Z,81.91
2022-12-03T10:58:59.214Z,81.21
2022-12-03T11:01:30.205Z,81.18
2022-12-03T11:04:07.714Z,80.85
2022-12-03T11:06:40.708Z,80.94
2022-12-03T11:09:20.485Z,80.76
2022-12-03T11:11:51.642Z,80.58
2022-12-03T11:15:09.184Z,80.92
2022-12-03T11:17:48.680Z,81.36
2022-12-03T11:21:16.662Z,81.37
2022-12-03T11:24:31.616Z,81.51
2022-12-03T11:27:26.023Z,81.34
2022-12-03T11:30:04.189Z,81.38
2022-12-03T11:33:07.653Z,81.31
2022-12-03T11:36:31.761Z,81.24
2022-12-03T11:39:12.890Z,81.60
2022-12-03T11:41:43.882Z,81.70
2022-12-03T11:44:34.378Z,82.05
2022-12-03T11:47:17.509Z,81.90
2022-12-03T11:49:52.311Z,81.57
2022-12-03T11:52:28.248Z,81.59
2022-12-03T11:55:06.518Z,81.29
2022-12-03T11:57:40.613Z,81.44
2022-12-03T12:00:22.375Z,81.45
2022-12-03T12:02:54.449Z,81.53
2022-12-03T12:05:36.049Z,81.75
2022-12-03T12:08:06.810Z,82.24
2022-12-03T12:10:51.929Z,82.51
2022-12-03T12:13:54.707Z,82.75
2022-12-03T12:16:47.705Z,83.01
2022-12-03T12:19:40.746Z,82.88
2022-12-03T12:22:25.162Z,82.87
2022-12-03T12:24:57.666Z,83.01
2022-12-03T12:27:45.266Z,83.01
2022-12-03T12:30:19.827Z,82.99
2022-12-03T12:32:52.307Z,83.45
2022-12-03T12:35:25.871Z,83.49
2022-12-03T12:38:00.473Z,83.90
2022-12-03T12:40:34.039Z,83.27
2022-12-03T12:43:23.832Z,83.36
2022-12-03T12:45:57.381Z,82.95
2022-12-03T12:48:30.509Z,83.12
2022-12-03T12:51:13.148Z,83.36
2022-12-03T12:53:44.805Z,83.55
2022-12-03T12:56:26.741Z,83.32
2022-12-03T12:59:02.229Z,83.71
2022-12-03T13:01:35.614Z,83.97
2022-12-03T13:04:14.917Z,84.00
2022-12-03T13:06:45.877Z,84.11
2022-12-03T13:09:20.246Z,83.79
2022-12-03T13:11:55.682Z,83.89
2022-12-03T13:14:34.814Z,84.29
2022-12-03T13:17:15.906Z,84.31
2022-12-03T13:19:50.704Z,84.72
2022-12-03T13:22:25.867Z,85.13
2022-12-03T13:24:59.484Z,85.45
2022-12-03T13:27:32.972Z,85.45
2022-12-03T13:30:17.016Z,86.24
2022-12-03T13:32:47.793Z,86.30
2022-12-03T13:35:31.333Z,86.67
2022-12-03T13:38:02.002Z,86.78
2022-12-03T13:40:35.162Z,86.46
2022-12-03T13:43:09.553Z,86.87
2022-12-03T13:45:43.917Z,87.49
2022-12-03T13:48:24.973Z,87.21
2022-12-03T13:50:56.688Z,86.80
2022-12-03T13:53:30.567Z,86.68
2022-12-03T13:56:07.441Z,86.02
2022-12-03T13:58:37.758Z,84.83
2022-12-03T14:01:10.798Z,85.38
2022-12-03T14:03:41.196Z,84.26
2022-12-03T14:06:11.657Z,83.82
2022-12-03T14:08:42.039Z,83.77
2022-12-03T14:11:32.436Z,83.88
2022-12-03T14:14:02.942Z,83.72
2022-12-03T14:16:36.363Z,83.83
2022-12-03T14:19:07.328Z,83.73
2022-12-03T14:21:37.779Z,83.42
2022-12-03T14:24:09.490Z,83.60
2022-12-03T14:26:39.825Z,83.61
2022-12-03T14:29:10.191Z,84.00
2022-12-03T14:31:43.142Z,84.10
2022-12-03T14:34:13.490Z,83.99
2022-12-03T14:36:44.331Z,83.86
2022-12-03T14:39:14.782Z,83.76
2022-12-03T14:41:57.499Z,83.64
2022-12-03T14:44:27.860Z,83.95
2022-12-03T14:47:02.384Z,83.84
2022-12-03T14:49:33.148Z,83.41
2022-12-03T14:52:03.629Z,83.41
2022-12-03T14:54:34.194Z,83.30
2022-12-03T14:57:04.825Z,83.40
2022-12-03T14:59:35.204Z,83.29
2022-12-03T15:02:08.798Z,83.63
2022-12-03T15:04:40.392Z,84.19
2022-12-03T15:07:11.260Z,83.94
2022-12-03T15:09:41.672Z,83.37
2022-12-03T15:12:12.005Z,83.38
2022-12-03T15:14:42.630Z,83.51
2022-12-03T15:17:16.032Z,83.67
2022-12-03T15:19:46.386Z,83.57
2022-12-03T15:22:16.693Z,83.40
2022-12-03T15:24:47.036Z,83.69
2022-12-03T15:27:17.282Z,83.57
2022-12-03T15:29:47.799Z,83.32
2022-12-03T15:32:20.836Z,83.47
2022-12-03T15:34:51.459Z,83.48
2022-12-03T15:37:21.958Z,83.72
2022-12-03T15:39:52.377Z,83.71
2022-12-03T15:42:22.740Z,83.55
2022-12-03T15:45:14.954Z,83.81
2022-12-03T15:47:48.392Z,83.84
2022-12-03T15:50:18.885Z,83.87
2022-12-03T15:52:49.281Z,83.73
2022-12-03T15:55:20.362Z,83.98
2022-12-03T15:57:50.973Z,84.20
2022-12-03T16:00:22.873Z,84.33
2022-12-03T16:02:55.887Z,84.47
2022-12-03T16:05:26.719Z,84.26
2022-12-03T16:07:57.126Z,84.40
2022-12-03T16:10:27.452Z,83.75
2022-12-03T16:12:57.834Z,83.78
2022-12-03T16:15:28.153Z,84.36
2022-12-03T16:18:01.223Z,84.44
2022-12-03T16:20:31.623Z,84.43
2022-12-03T16:23:01.900Z,84.42
2022-12-03T16:25:32.158Z,84.66
2022-12-03T16:28:02.482Z,84.61
2022-12-03T16:30:32.809Z,84.70
2022-12-03T16:33:05.836Z,85.24
2022-12-03T16:35:36.308Z,86.56
2022-12-03T16:38:06.759Z,85.34
2022-12-03T16:40:37.239Z,85.03
2022-12-03T16:43:09.934Z,84.49
2022-12-03T16:46:20.679Z,84.31
2022-12-03T16:48:55.356Z,84.84
2022-12-03T16:51:30.425Z,85.21
2022-12-03T16:54:00.807Z,85.14
2022-12-03T16:56:31.088Z,85.18
2022-12-03T16:59:01.574Z,85.08
2022-12-03T17:01:31.961Z,85.20
2022-12-03T17:04:04.959Z,84.69
2022-12-03T17:06:35.521Z,84.82
2022-12-03T17:09:06.210Z,84.51
2022-12-03T17:11:36.641Z,84.55
2022-12-03T17:14:06.946Z,84.51
2022-12-03T17:16:37.391Z,84.61
2022-12-03T17:19:10.417Z,84.59
2022-12-03T17:21:40.686Z,84.71
2022-12-03T17:24:11.686Z,84.99
2022-12-03T17:26:45.783Z,84.68
2022-12-03T17:29:16.497Z,84.56
2022-12-03T17:31:47.137Z,84.27
2022-12-03T17:34:20.166Z,84.43
2022-12-03T17:36:50.756Z,84.81
2022-12-03T17:39:21.186Z,85.08
2022-12-03T17:41:51.664Z,85.31
2022-12-03T17:44:22.333Z,85.01
2022-12-03T17:46:52.862Z,85.37
2022-12-03T17:49:31.370Z,85.40
2022-12-03T17:52:02.367Z,84.94
2022-12-03T17:54:55.227Z,86.38
2022-12-03T17:57:23.537Z,85.98
2022-12-03T17:59:54.194Z,85.65
2022-12-03T18:02:24.767Z,84.80
2022-12-03T18:04:57.711Z,84.98
2022-12-03T18:07:28.062Z,85.04
2022-12-03T18:09:58.494Z,85.43
2022-12-03T18:12:29.237Z,85.60
2022-12-03T18:14:59.663Z,85.56
2022-12-03T18:17:29.999Z,85.43
2022-12-03T18:20:03.019Z,85.57
2022-12-03T18:22:34.604Z,85.38
2022-12-03T18:25:06.356Z,85.24
2022-12-03T18:27:37.086Z,85.26
2022-12-03T18:30:09.830Z,84.85
2022-12-03T18:32:40.122Z,84.61
2022-12-03T18:35:13.244Z,84.67
2022-12-03T18:37:43.644Z,85.06
2022-12-03T18:40:20.632Z,84.98
2022-12-03T18:42:51.242Z,84.87
2022-12-03T18:45:22.224Z,84.98
2022-12-03T18:47:52.719Z,84.75
2022-12-03T18:50:25.844Z,84.87
2022-12-03T18:52:56.205Z,84.79
2022-12-03T18:55:27.266Z,84.79
2022-12-03T18:57:57.659Z,85.13
2022-12-03T19:00:28.276Z,85.19
2022-12-03T19:03:03.591Z,85.13
2022-12-03T19:05:38.815Z,85.19
2022-12-03T19:08:14.966Z,85.03
2022-12-03T19:10:47.221Z,85.17
2022-12-03T19:13:17.574Z,85.25
2022-12-03T19:15:49.162Z,84.93
2022-12-03T19:18:19.543Z,84.75
2022-12-03T19:20:53.345Z,85.20
2022-12-03T19:23:23.742Z,85.05
2022-12-03T19:26:01.021Z,85.05
2022-12-03T19:28:32.464Z,85.24
2022-12-03T19:31:04.923Z,85.51
2022-12-03T19:33:35.691Z,85.46
2022-12-03T19:36:11.568Z,85.67
2022-12-03T19:38:42.499Z,85.72
2022-12-03T19:41:14.886Z,85.61
2022-12-03T19:43:45.252Z,85.63
2022-12-03T19:46:15.840Z,85.40
2022-12-03T19:48:46.320Z,85.45
2022-12-03T19:51:34.237Z,85.63
2022-12-03T19:54:06.062Z,85.62
2022-12-03T19:56:37.362Z,85.69
2022-12-03T19:59:07.894Z,85.74
2022-12-03T20:01:40.779Z,85.80
2022-12-03T20:04:11.691Z,85.85
2022-12-03T20:06:45.559Z,85.86
2022-12-03T20:09:18.392Z,85.87
2022-12-03T20:11:49.184Z,85.86
2022-12-03T20:14:20.653Z,85.96
2022-12-03T20:16:51.520Z,86.20
2022-12-03T20:19:22.328Z,86.35
2022-12-03T20:22:00.684Z,86.24
2022-12-03T20:24:32.969Z,86.39
2022-12-03T20:27:03.411Z,86.24
2022-12-03T20:29:34.114Z,86.94
2022-12-03T20:32:07.089Z,86.79
2022-12-03T20:34:38.182Z,86.71
2022-12-03T20:37:11.299Z,87.30
2022-12-03T20:39:41.824Z,87.28
2022-12-03T20:42:13.268Z,87.13
2022-12-03T20:44:43.617Z,87.48
2022-12-03T20:47:13.904Z,86.98
2022-12-03T20:49:44.235Z,86.99
2022-12-03T20:52:17.241Z,86.84
2022-12-03T20:54:48.138Z,87.07
2022-12-03T20:57:18.547Z,87.33
2022-12-03T20:59:48.871Z,87.63
2022-12-03T21:02:19.333Z,87.76
2022-12-03T21:04:49.871Z,87.98
2022-12-03T21:07:22.798Z,88.10
2022-12-03T21:09:53.688Z,88.19
2022-12-03T21:12:24.039Z,87.89
2022-12-03T21:14:54.361Z,88.06
2022-12-03T21:17:24.745Z,88.29
2022-12-03T21:19:55.363Z,88.16
2022-12-03T21:22:28.542Z,87.82
2022-12-03T21:24:58.865Z,87.90
2022-12-03T21:27:29.149Z,87.92
2022-12-03T21:29:59.413Z,87.88
2022-12-03T21:32:29.692Z,87.89
2022-12-03T21:34:59.968Z,87.77
2022-12-03T21:37:32.999Z,87.87
2022-12-03T21:40:03.303Z,88.15
2022-12-03T21:42:36.170Z,87.94
2022-12-03T21:45:09.457Z,87.70
2022-12-03T21:47:39.933Z,87.34
2022-12-03T21:50:13.921Z,87.54
2022-12-03T21:52:46.982Z,87.29
2022-12-03T21:55:17.323Z,87.69
2022-12-03T21:57:47.699Z,88.03
2022-12-03T22:00:19.230Z,88.09
2022-12-03T22:02:49.587Z,87.90
2022-12-03T22:05:20.114Z,87.87
2022-12-03T22:07:53.268Z,87.72
2022-12-03T22:10:23.878Z,87.70
2022-12-03T22:12:54.247Z,87.65
2022-12-03T22:15:24.563Z,87.84
2022-12-03T22:17:54.877Z,87.51
2022-12-03T22:20:25.264Z,87.67
2022-12-03T22:22:58.207Z,87.79
2022-12-03T22:25:28.538Z,87.67
2022-12-03T22:27:58.805Z,88.12
2022-12-03T22:30:29.206Z,87.88
2022-12-03T22:32:59.604Z,88.08
2022-12-03T22:35:37.305Z,87.75
2022-12-03T22:38:10.201Z,87.54
2022-12-03T22:40:42.756Z,87.41
2022-12-03T22:43:13.033Z,87.80
2022-12-03T22:45:43.306Z,87.82
2022-12-03T22:48:13.954Z,88.19
2022-12-03T22:50:46.313Z,87.75
2022-12-03T22:53:19.521Z,87.72
2022-12-03T22:55:58.229Z,87.70
2022-12-03T22:58:29.576Z,87.72
2022-12-03T23:01:02.840Z,87.80
2022-12-03T23:03:33.927Z,88.12
2022-12-03T23:06:04.315Z,88.07
2022-12-03T23:08:37.203Z,87.92
2022-12-03T23:11:07.726Z,87.72
2022-12-03T23:13:38.299Z,87.95
2022-12-03T23:16:10.407Z,87.63
2022-12-03T23:18:40.891Z,87.71
2022-12-03T23:21:11.582Z,87.70
2022-12-03T23:23:44.671Z,87.85
2022-12-03T23:26:16.941Z,87.96
2022-12-03T23:28:49.048Z,88.20
2022-12-03T23:31:23.204Z,88.37
2022-12-03T23:33:54.723Z,88.43
2022-12-03T23:36:26.686Z,88.50
2022-12-03T23:38:59.942Z,88.38
2022-12-03T23:41:30.464Z,88.25
2022-12-03T23:44:00.830Z,88.19
2022-12-03T23:46:31.824Z,88.14
2022-12-03T23:49:02.896Z,88.26
2022-12-03T23:51:33.418Z,88.48
2022-12-03T23:54:06.659Z,88.49
2022-12-03T23:56:36.962Z,88.60
2022-12-03T23:59:07.584Z,88.70
